Time;durP1;ratioP1;P1;durP2;ratioP2;P2;SDS_P1;SDS_P2;PMS_P1;PMS_P2;Temp;Humidity;BMP_temperature;BMP_pressure;BME280_temperature;BME280_humidity;BME280_pressure;Samples;Min_cycle;Max_cycle;Signal;HPM_P1;HPM_P2
2021/10/15 00:02:10;;;;;;;10.63;7.90;;;10.30;78.10;;;;;;5054746;28;20506;-84
2021/10/15 00:04:39;;;;;;;18.70;9.03;;;10.40;77.60;;;;;;5054550;28;20479;-85
2021/10/15 00:07:06;;;;;;;14.10;6.70;;;10.30;77.20;;;;;;5054591;28;20506;-85
2021/10/15 00:09:33;;;;;;;11.77;7.07;;;10.30;77.90;;;;;;5054645;28;20849;-85
2021/10/15 00:12:02;;;;;;;9.80;7.10;;;10.20;78.00;;;;;;5053475;28;20502;-86
2021/10/15 00:14:30;;;;;;;12.73;8.40;;;10.20;78.30;;;;;;5054387;28;20533;-85
2021/10/15 00:16:59;;;;;;;16.23;6.77;;;10.20;77.60;;;;;;5054244;28;20456;-86
2021/10/15 00:19:26;;;;;;;9.67;6.70;;;10.20;77.20;;;;;;5054308;28;20485;-84
2021/10/15 00:21:54;;;;;;;13.13;7.40;;;10.20;78.10;;;;;;5054169;28;20498;-85
2021/10/15 00:24:21;;;;;;;13.10;7.77;;;10.20;78.60;;;;;;5054173;28;20546;-86
2021/10/15 00:26:48;;;;;;;17.73;8.73;;;10.10;78.70;;;;;;5054065;28;20968;-85
2021/10/15 00:29:17;;;;;;;12.50;8.50;;;10.10;78.60;;;;;;5053183;28;20487;-88
2021/10/15 00:31:47;;;;;;;17.50;9.33;;;10.10;78.80;;;;;;5053882;28;20459;-85
2021/10/15 00:34:14;;;;;;;10.90;7.30;;;10.10;79.20;;;;;;5053950;28;20458;-86
2021/10/15 00:36:41;;;;;;;15.87;9.43;;;10.00;80.30;;;;;;5053733;28;20520;-85
2021/10/15 00:39:09;;;;;;;9.70;8.70;;;9.90;80.40;;;;;;5054060;28;20554;-84
2021/10/15 00:41:37;;;;;;;14.20;9.27;;;9.90;82.00;;;;;;5053922;28;20440;-85
2021/10/15 00:44:06;;;;;;;14.20;9.40;;;9.80;83.00;;;;;;5052705;28;20977;-85
2021/10/15 00:46:34;;;;;;;13.17;9.80;;;9.90;83.20;;;;;;5053812;28;20569;-83
2021/10/15 00:49:02;;;;;;;13.00;10.07;;;9.70;83.30;;;;;;5053692;28;20518;-87
2021/10/15 00:51:30;;;;;;;14.20;11.30;;;9.80;84.20;;;;;;5053653;28;20451;-85
2021/10/15 00:53:58;;;;;;;31.57;12.17;;;9.70;85.20;;;;;;5053862;28;20451;-84
2021/10/15 00:56:28;;;;;;;13.60;10.83;;;9.60;85.30;;;;;;5053689;28;20488;-86
2021/10/15 00:58:56;;;;;;;14.37;10.60;;;9.80;85.60;;;;;;5052288;28;20467;-84
2021/10/15 01:01:25;;;;;;;15.23;11.00;;;9.60;85.30;;;;;;5053645;28;20545;-84
2021/10/15 01:03:52;;;;;;;14.20;11.40;;;9.60;85.30;;;;;;5053671;28;20483;-85
2021/10/15 01:06:20;;;;;;;14.60;11.43;;;9.50;86.50;;;;;;5053401;28;20490;-84
2021/10/15 01:08:48;;;;;;;17.47;12.40;;;9.60;87.00;;;;;;5053400;28;20947;-84
2021/10/15 01:11:16;;;;;;;17.40;15.90;;;9.40;87.20;;;;;;5053372;28;20541;-83
2021/10/15 01:13:46;;;;;;;16.03;14.43;;;9.40;88.70;;;;;;5052387;28;20472;-85
2021/10/15 01:16:16;;;;;;;18.60;16.57;;;9.40;89.70;;;;;;5053609;28;21024;-84
2021/10/15 01:18:45;;;;;;;24.30;22.20;;;9.30;90.20;;;;;;5053293;28;20474;-85
2021/10/15 01:21:14;;;;;;;18.90;17.20;;;9.20;90.90;;;;;;5053021;28;20829;-84
2021/10/15 01:23:41;;;;;;;25.57;18.80;;;9.20;91.10;;;;;;5052982;28;20456;-85
2021/10/15 01:26:11;;;;;;;23.43;21.73;;;9.00;91.40;;;;;;5053393;28;20566;-85
2021/10/15 01:28:38;;;;;;;26.97;24.70;;;9.10;92.00;;;;;;5052335;28;20542;-85
2021/10/15 01:31:06;;;;;;;30.63;28.23;;;8.90;92.20;;;;;;5053111;28;20459;-84
2021/10/15 01:33:33;;;;;;;41.63;38.70;;;8.90;92.50;;;;;;5053297;28;20466;-83
2021/10/15 01:36:02;;;;;;;37.47;35.27;;;8.90;93.30;;;;;;5053167;28;20459;-86
2021/10/15 01:38:31;;;;;;;52.77;49.87;;;8.90;93.90;;;;;;5052891;28;20456;-87
2021/10/15 01:40:58;;;;;;;47.03;44.10;;;8.80;94.20;;;;;;5052896;28;20574;-87
2021/10/15 01:43:27;;;;;;;51.37;48.63;;;8.90;94.20;;;;;;5051859;28;20502;-85
2021/10/15 01:45:55;;;;;;;43.93;41.57;;;9.00;94.10;;;;;;5053104;28;20484;-83
2021/10/15 01:48:24;;;;;;;47.93;44.67;;;8.90;94.20;;;;;;5052501;28;20509;-85
2021/10/15 01:50:51;;;;;;;56.97;54.03;;;8.90;94.40;;;;;;5052733;28;20460;-87
2021/10/15 01:53:18;;;;;;;45.37;42.90;;;8.80;94.70;;;;;;5052887;28;20452;-86
2021/10/15 01:55:49;;;;;;;42.90;40.50;;;8.80;94.60;;;;;;5052874;28;20534;-86
2021/10/15 01:58:17;;;;;;;49.70;46.90;;;9.00;94.40;;;;;;5051820;28;20463;-85
2021/10/15 02:00:44;;;;;;;41.30;39.00;;;8.90;94.50;;;;;;5052645;28;20993;-84
2021/10/15 02:03:11;;;;;;;43.77;41.07;;;8.80;94.30;;;;;;5052635;28;20977;-84
2021/10/15 02:05:40;;;;;;;40.40;37.37;;;8.90;94.40;;;;;;5052505;28;20456;-84
2021/10/15 02:08:07;;;;;;;38.97;36.70;;;9.00;94.40;;;;;;5052724;28;20475;-87
2021/10/15 02:10:34;;;;;;;39.77;36.83;;;8.90;94.30;;;;;;5052834;28;20537;-84
2021/10/15 02:13:02;;;;;;;36.60;34.40;;;8.90;94.50;;;;;;5051387;28;20543;-86
2021/10/15 02:15:29;;;;;;;41.90;39.20;;;8.90;94.30;;;;;;5052510;28;20494;-84
2021/10/15 02:17:56;;;;;;;37.30;34.90;;;8.80;94.60;;;;;;5052737;28;20479;-85
2021/10/15 02:20:23;;;;;;;42.37;39.77;;;8.90;94.40;;;;;;5052452;28;20487;-83
2021/10/15 02:22:55;;;;;;;45.03;41.73;;;8.90;94.40;;;;;;5052239;28;20483;-85
2021/10/15 02:25:23;;;;;;;43.53;40.83;;;8.90;94.60;;;;;;5052446;28;20492;-83
2021/10/15 02:27:50;;;;;;;42.37;39.67;;;9.00;94.40;;;;;;5051611;28;20455;-84
2021/10/15 02:30:19;;;;;;;46.40;43.17;;;9.10;94.40;;;;;;5052316;28;20465;-87
2021/10/15 02:32:48;;;;;;;50.10;46.53;;;9.10;94.50;;;;;;5052123;28;20452;-85
2021/10/15 02:35:15;;;;;;;48.77;44.87;;;9.20;94.60;;;;;;5052623;28;20462;-84
2021/10/15 02:37:43;;;;;;;35.90;33.00;;;9.20;94.50;;;;;;5052494;28;20486;-86
2021/10/15 02:40:11;;;;;;;26.37;24.10;;;9.30;94.00;;;;;;5052359;28;20521;-86
2021/10/15 02:42:38;;;;;;;23.40;21.30;;;9.50;92.70;;;;;;5051355;28;20447;-84
2021/10/15 02:45:06;;;;;;;21.90;20.00;;;9.50;92.30;;;;;;5052083;28;20463;-83
2021/10/15 02:47:35;;;;;;;19.53;17.53;;;9.70;91.90;;;;;;5052226;28;20487;-85
2021/10/15 02:50:03;;;;;;;17.23;15.57;;;9.80;91.30;;;;;;5052264;28;20498;-85
2021/10/15 02:52:31;;;;;;;14.70;13.40;;;9.80;91.50;;;;;;5052245;28;20463;-87
2021/10/15 02:54:58;;;;;;;16.83;14.87;;;9.90;91.40;;;;;;5052145;28;20533;-88
2021/10/15 02:57:25;;;;;;;16.77;15.17;;;9.90;91.40;;;;;;5051166;28;20546;-87
2021/10/15 02:59:52;;;;;;;13.53;12.23;;;9.90;91.40;;;;;;5055209;28;20527;-86
2021/10/15 03:02:19;;;;;;;15.50;13.83;;;10.00;91.00;;;;;;5055965;28;20459;-86
2021/10/15 03:04:47;;;;;;;24.10;13.03;;;9.90;91.40;;;;;;5055709;28;20479;-85
2021/10/15 03:07:14;;;;;;;12.70;10.50;;;9.90;90.70;;;;;;5055724;28;20481;-84
2021/10/15 03:09:41;;;;;;;14.03;11.50;;;10.10;89.40;;;;;;5055695;28;20460;-86
2021/10/15 03:12:08;;;;;;;17.90;11.77;;;10.20;88.50;;;;;;5054615;28;20454;-86
2021/10/15 03:14:35;;;;;;;19.57;9.20;;;10.30;87.50;;;;;;5055466;28;20522;-87
2021/10/15 03:20:37;;;;;;;14.30;10.50;;;10.30;85.80;;;;;;5048127;28;20474;-88
2021/10/15 03:23:07;;;;;;;13.93;10.93;;;10.40;84.50;;;;;;5055298;28;20479;-87
2021/10/15 03:25:37;;;;;;;16.87;10.33;;;10.40;83.60;;;;;;5055565;28;20452;-87
2021/10/15 03:28:11;;;;;;;18.83;10.37;;;10.50;82.10;;;;;;5054440;28;20466;-87
2021/10/15 03:30:52;;;;;;;25.73;9.80;;;10.50;83.10;;;;;;5055201;28;20477;-85
2021/10/15 03:33:18;;;;;;;13.30;7.77;;;10.50;82.70;;;;;;5055136;28;20493;-84
2021/10/15 03:35:53;;;;;;;20.47;8.90;;;10.50;81.70;;;;;;5055096;28;20456;-85
2021/10/15 03:38:25;;;;;;;16.03;8.70;;;10.50;81.90;;;;;;5055073;28;20455;-85
2021/10/15 03:41:19;;;;;;;11.83;8.90;;;10.50;81.70;;;;;;5055007;28;20565;-86
2021/10/15 03:43:50;;;;;;;14.30;8.13;;;10.50;80.30;;;;;;5051486;28;20518;-85
2021/10/15 03:46:22;;;;;;;18.33;9.10;;;10.60;80.30;;;;;;5055031;28;20536;-85
2021/10/15 03:48:53;;;;;;;16.27;8.90;;;10.60;79.10;;;;;;5054845;28;20452;-86
2021/10/15 03:51:26;;;;;;;8.90;7.83;;;10.60;78.10;;;;;;5054911;28;20452;-87
2021/10/15 03:53:55;;;;;;;12.63;8.73;;;10.70;77.90;;;;;;5054744;28;20455;-86
2021/10/15 03:56:44;;;;;;;15.93;8.90;;;10.90;77.80;;;;;;5054784;28;20452;-86
2021/10/15 03:59:26;;;;;;;12.87;7.73;;;10.80;77.70;;;;;;5053543;28;20455;-87
2021/10/15 04:01:53;;;;;;;13.67;7.83;;;10.80;77.70;;;;;;5054556;28;20518;-87
2021/10/15 04:04:28;;;;;;;12.13;8.53;;;10.90;77.80;;;;;;5054716;28;20789;-85
2021/10/15 04:06:59;;;;;;;12.70;8.27;;;10.90;77.50;;;;;;5054643;28;20463;-85
2021/10/15 04:09:30;;;;;;;17.37;9.00;;;11.00;75.70;;;;;;5054311;28;20955;-86
2021/10/15 04:12:07;;;;;;;12.03;8.60;;;11.10;77.40;;;;;;5054394;28;20470;-86
2021/10/15 04:14:37;;;;;;;13.37;8.57;;;11.00;77.20;;;;;;5054475;28;20439;-85
2021/10/15 04:17:13;;;;;;;16.93;8.30;;;11.00;76.50;;;;;;5054382;28;20535;-86
2021/10/15 04:19:40;;;;;;;13.83;9.53;;;10.90;77.70;;;;;;5054321;28;20478;-84
2021/10/15 04:22:10;;;;;;;11.73;9.20;;;10.90;77.70;;;;;;5053968;28;20491;-83
2021/10/15 04:24:39;;;;;;;10.93;8.63;;;11.00;77.90;;;;;;5054383;28;20930;-85
2021/10/15 04:27:15;;;;;;;11.20;8.87;;;11.00;77.90;;;;;;5053375;28;20455;-83
2021/10/15 04:29:46;;;;;;;15.57;9.07;;;11.00;77.90;;;;;;5054149;28;20485;-85
2021/10/15 04:32:17;;;;;;;14.27;8.73;;;10.90;77.20;;;;;;5054069;28;20505;-84
2021/10/15 04:34:47;;;;;;;14.37;9.87;;;11.00;77.10;;;;;;5054085;28;20927;-85
2021/10/15 04:37:19;;;;;;;13.67;9.23;;;10.90;77.80;;;;;;5053980;28;20459;-85
2021/10/15 04:39:46;;;;;;;16.57;9.07;;;11.00;76.70;;;;;;5053810;28;20447;-85
2021/10/15 04:42:20;;;;;;;13.33;8.60;;;11.10;75.90;;;;;;5052655;28;20846;-85
2021/10/15 04:45:02;;;;;;;15.63;8.53;;;11.00;76.20;;;;;;5053922;28;20492;-85
2021/10/15 04:47:34;;;;;;;15.23;8.07;;;11.00;76.50;;;;;;5053985;28;20529;-84
2021/10/15 04:50:01;;;;;;;12.80;7.60;;;11.20;76.40;;;;;;5053612;28;20455;-85
2021/10/15 04:52:34;;;;;;;12.57;7.70;;;11.10;75.70;;;;;;5053507;28;20559;-85
2021/10/15 04:55:05;;;;;;;13.50;7.90;;;11.10;76.10;;;;;;5053654;28;20543;-85
2021/10/15 04:57:32;;;;;;;11.60;8.07;;;11.00;75.50;;;;;;5052402;28;20490;-84
2021/10/15 05:00:07;;;;;;;11.63;7.00;;;11.10;75.70;;;;;;5053836;28;20451;-84
2021/10/15 05:02:41;;;;;;;13.77;7.03;;;11.10;76.50;;;;;;5053543;28;20934;-84
2021/10/15 05:05:18;;;;;;;10.20;8.30;;;11.10;76.00;;;;;;5053465;28;20447;-85
2021/10/15 05:07:50;;;;;;;11.70;7.33;;;11.10;75.90;;;;;;5053442;28;20533;-84
2021/10/15 05:10:22;;;;;;;15.37;7.97;;;11.00;76.70;;;;;;5053347;28;20531;-85
2021/10/15 05:12:58;;;;;;;9.23;6.80;;;11.00;76.50;;;;;;5052156;28;20961;-85
2021/10/15 05:15:31;;;;;;;10.23;6.90;;;11.10;76.20;;;;;;5053174;28;20542;-85
2021/10/15 05:18:00;;;;;;;16.87;7.50;;;11.20;76.40;;;;;;5053249;28;20456;-85
2021/10/15 05:20:30;;;;;;;10.93;7.10;;;11.00;76.80;;;;;;5053181;28;20476;-84
2021/10/15 05:23:04;;;;;;;15.93;7.07;;;11.10;77.00;;;;;;5052179;28;20483;-86
2021/10/15 05:25:55;;;;;;;13.73;7.20;;;11.10;77.00;;;;;;5053147;28;21017;-84
2021/10/15 05:28:25;;;;;;;15.27;7.43;;;11.20;77.00;;;;;;5024190;28;20455;-86
2021/10/15 05:30:54;;;;;;;11.40;7.03;;;11.10;77.50;;;;;;5052918;28;20461;-86
2021/10/15 05:33:24;;;;;;;14.73;8.10;;;11.10;76.50;;;;;;5053038;28;20470;-84
2021/10/15 05:36:27;;;;;;;12.53;7.70;;;11.20;77.50;;;;;;5052800;28;20459;-87
2021/10/15 05:38:59;;;;;;;24.93;9.70;;;11.20;76.70;;;;;;5052994;28;20520;-85
2021/10/15 05:41:40;;;;;;;22.97;14.83;;;11.20;77.00;;;;;;5052727;28;20494;-85
2021/10/15 05:44:13;;;;;;;69.00;34.90;;;11.30;77.40;;;;;;5052065;28;20533;-85
2021/10/15 05:46:43;;;;;;;88.23;42.50;;;11.20;77.30;;;;;;5052941;28;20459;-86
2021/10/15 05:49:10;;;;;;;82.10;42.23;;;11.30;78.10;;;;;;5052888;28;20459;-86
2021/10/15 05:51:42;;;;;;;50.20;28.53;;;11.20;78.00;;;;;;5052787;28;20865;-85
2021/10/15 05:54:23;;;;;;;26.03;15.17;;;11.20;78.00;;;;;;5052881;28;20509;-85
2021/10/15 05:57:14;;;;;;;35.20;22.17;;;11.30;76.80;;;;;;5052828;28;20818;-85
2021/10/15 05:59:40;;;;;;;19.30;10.13;;;11.30;77.40;;;;;;5052611;28;20882;-85
2021/10/15 06:02:31;;;;;;;14.90;9.23;;;11.40;77.50;;;;;;5052666;28;20574;-85
2021/10/15 06:16:32;;;;;;;15.70;7.73;;;11.40;78.20;;;;;;5010688;28;20537;-87
2021/10/15 06:21:56;;;;;;;13.80;7.87;;;11.40;78.20;;;;;;5042010;28;20499;-84
2021/10/15 06:24:24;;;;;;;11.20;7.10;;;11.50;78.30;;;;;;5052388;28;20465;-85
2021/10/15 06:26:52;;;;;;;12.93;6.57;;;11.40;78.20;;;;;;5052548;28;21001;-85
2021/10/15 06:29:19;;;;;;;8.30;5.63;;;11.40;78.20;;;;;;5051608;28;20459;-85
2021/10/15 06:31:46;;;;;;;13.77;7.30;;;11.30;78.10;;;;;;5052489;28;20510;-85
2021/10/15 06:34:13;;;;;;;12.47;6.60;;;11.40;78.30;;;;;;5055277;28;20521;-85
2021/10/15 06:36:40;;;;;;;16.13;6.97;;;11.60;78.40;;;;;;5056345;28;20534;-85
2021/10/15 06:39:07;;;;;;;14.10;7.17;;;11.50;78.30;;;;;;5056175;28;20514;-84
2021/10/15 06:41:35;;;;;;;10.13;6.50;;;11.60;78.40;;;;;;5056113;28;20506;-86
2021/10/15 06:44:13;;;;;;;10.13;7.03;;;11.40;78.30;;;;;;5055013;28;20554;-84
2021/10/15 06:46:40;;;;;;;11.63;7.60;;;11.50;78.40;;;;;;5056066;28;20538;-87
2021/10/15 06:49:10;;;;;;;10.30;7.10;;;11.50;78.30;;;;;;5056214;28;20459;-86
2021/10/15 06:51:37;;;;;;;15.17;6.93;;;11.60;79.60;;;;;;5056152;28;20460;-84
2021/10/15 06:54:04;;;;;;;10.57;6.87;;;11.60;79.60;;;;;;5056130;28;20443;-85
2021/10/15 06:56:31;;;;;;;10.90;7.40;;;11.60;78.50;;;;;;5056052;28;20461;-84
2021/10/15 06:58:58;;;;;;;14.83;7.53;;;11.50;78.30;;;;;;5054609;28;20483;-84
2021/10/15 07:01:35;;;;;;;9.87;6.77;;;11.70;80.00;;;;;;5055632;28;20533;-85
2021/10/15 07:04:03;;;;;;;15.90;9.13;;;11.70;79.90;;;;;;5056185;28;20470;-85
2021/10/15 07:06:35;;;;;;;12.87;7.80;;;11.70;78.60;;;;;;5055615;28;20455;-83
2021/10/15 07:09:03;;;;;;;11.97;7.00;;;11.70;79.40;;;;;;5055534;28;20550;-85
2021/10/15 07:11:30;;;;;;;11.17;7.67;;;11.80;78.60;;;;;;5055556;28;21004;-85
2021/10/15 07:13:58;;;;;;;17.40;8.53;;;11.90;78.90;;;;;;5054523;28;20906;-83
2021/10/15 07:16:26;;;;;;;13.60;7.90;;;12.00;78.90;;;;;;5055496;28;20943;-86
2021/10/15 07:18:53;;;;;;;18.60;7.40;;;12.00;79.40;;;;;;5055686;28;20796;-87
2021/10/15 07:21:27;;;;;;;14.47;7.53;;;12.10;78.90;;;;;;5055269;28;20479;-84
2021/10/15 07:23:55;;;;;;;14.53;8.27;;;12.10;79.00;;;;;;5055627;28;20527;-85
2021/10/15 07:26:24;;;;;;;11.60;7.27;;;12.20;79.60;;;;;;5055674;28;20542;-85
2021/10/15 07:28:56;;;;;;;11.97;7.40;;;12.30;79.00;;;;;;5053976;28;20486;-84
2021/10/15 07:31:29;;;;;;;14.13;7.40;;;12.30;79.00;;;;;;5055271;28;20487;-84
2021/10/15 07:33:57;;;;;;;13.13;7.60;;;12.30;78.50;;;;;;5055130;28;20459;-84
2021/10/15 07:36:28;;;;;;;13.37;7.17;;;12.40;78.50;;;;;;5053863;28;20455;-85
2021/10/15 07:39:23;;;;;;;;;;;;;;;;;;;;;
2021/10/15 07:41:50;;;;;;;11.27;7.20;;;12.50;77.40;;;;;;5053262;28;20491;-83
2021/10/15 07:44:17;;;;;;;12.93;7.70;;;12.50;78.40;;;;;;5052230;28;20498;-85
2021/10/15 07:46:45;;;;;;;15.73;8.00;;;12.70;79.20;;;;;;5053216;28;20471;-85
2021/10/15 07:49:16;;;;;;;10.60;7.67;;;12.60;78.60;;;;;;5053951;28;20525;-84
2021/10/15 07:51:43;;;;;;;13.30;8.63;;;12.60;77.50;;;;;;5053754;28;20509;-84
2021/10/15 07:54:14;;;;;;;17.73;10.00;;;12.60;77.90;;;;;;5053261;28;20455;-86
2021/10/15 07:56:47;;;;;;;9.00;7.00;;;12.70;77.70;;;;;;5053856;28;20451;-84
2021/10/15 07:59:16;;;;;;;11.83;7.37;;;12.70;79.20;;;;;;5052589;28;20452;-84
2021/10/15 08:01:44;;;;;;;12.17;7.73;;;12.80;76.50;;;;;;5053386;28;20475;-84
2021/10/15 08:04:13;;;;;;;9.97;7.17;;;12.80;77.00;;;;;;5053682;28;20534;-85
2021/10/15 08:06:57;;;;;;;12.27;7.57;;;12.90;76.30;;;;;;5050752;28;20502;-84
2021/10/15 08:09:25;;;;;;;12.85;8.60;;;12.90;76.10;;;;;;5053237;28;20456;-84
2021/10/15 08:11:52;;;;;;;15.30;8.03;;;12.90;76.90;;;;;;5054572;28;20204;-84
2021/10/15 08:14:26;;;;;;;15.10;8.00;;;13.00;77.80;;;;;;5053005;28;20517;-85
2021/10/15 08:16:53;;;;;;;15.03;8.50;;;13.00;76.80;;;;;;5054133;28;20954;-84
2021/10/15 08:19:22;;;;;;;14.43;8.83;;;13.00;77.50;;;;;;5054306;28;20547;-85
2021/10/15 08:21:52;;;;;;;10.23;8.20;;;12.90;78.20;;;;;;5053917;28;20568;-85
2021/10/15 08:24:24;;;;;;;11.80;7.90;;;13.00;78.10;;;;;;5054250;28;20458;-85
2021/10/15 08:26:51;;;;;;;18.70;9.17;;;13.10;78.70;;;;;;5054386;28;20459;-84
2021/10/15 08:29:18;;;;;;;12.63;8.17;;;13.10;79.30;;;;;;5052881;28;21075;-85
2021/10/15 08:31:45;;;;;;;16.20;8.93;;;13.00;79.40;;;;;;5054002;28;20798;-85
2021/10/15 08:34:13;;;;;;;15.83;9.37;;;13.10;79.10;;;;;;5054173;28;20547;-85
2021/10/15 08:36:40;;;;;;;10.83;8.30;;;13.10;79.00;;;;;;5054170;28;20547;-84
2021/10/15 08:39:07;;;;;;;13.53;9.20;;;13.30;79.90;;;;;;5054331;28;20542;-85
2021/10/15 08:41:38;;;;;;;13.30;8.83;;;13.20;79.00;;;;;;5053959;28;20562;-84
2021/10/15 08:44:15;;;;;;;15.13;8.53;;;13.30;78.20;;;;;;5052503;28;20490;-84
2021/10/15 08:46:42;;;;;;;15.37;9.90;;;13.40;79.10;;;;;;5054132;28;20858;-86
2021/10/15 08:49:09;;;;;;;23.00;10.23;;;13.50;77.80;;;;;;5054180;28;20528;-85
2021/10/15 08:51:37;;;;;;;14.03;7.93;;;13.50;77.80;;;;;;5053954;28;20455;-87
2021/10/15 08:54:05;;;;;;;18.40;9.97;;;13.50;77.40;;;;;;5053596;28;20458;-85
2021/10/15 08:56:40;;;;;;;13.50;8.60;;;13.50;77.60;;;;;;5054373;28;20451;-85
2021/10/15 08:59:09;;;;;;;19.93;9.87;;;13.50;77.20;;;;;;5052371;28;20474;-84
2021/10/15 09:01:45;;;;;;;24.50;10.40;;;13.50;77.20;;;;;;5053683;28;20497;-85
2021/10/15 09:04:17;;;;;;;17.03;9.73;;;13.70;78.50;;;;;;5053444;28;20546;-85
2021/10/15 09:06:45;;;;;;;13.30;9.00;;;13.60;77.10;;;;;;5053437;28;20447;-86
2021/10/15 09:09:15;;;;;;;18.83;10.30;;;13.70;78.40;;;;;;5053294;28;21024;-84
2021/10/15 09:11:47;;;;;;;14.50;9.00;;;13.80;77.80;;;;;;5053576;28;20459;-85
2021/10/15 09:14:17;;;;;;;17.67;9.00;;;13.80;77.40;;;;;;5052323;28;20460;-85
2021/10/15 09:16:58;;;;;;;15.43;9.73;;;13.80;78.40;;;;;;5053531;28;20462;-85
2021/10/15 09:19:29;;;;;;;20.80;11.17;;;13.80;78.10;;;;;;5053021;28;20569;-88
2021/10/15 09:22:19;;;;;;;22.77;11.27;;;13.80;78.10;;;;;;5053053;28;20570;-86
2021/10/15 09:24:49;;;;;;;14.47;9.80;;;13.80;77.20;;;;;;5053284;28;21009;-86
2021/10/15 09:27:23;;;;;;;21.07;12.13;;;13.80;81.60;;;;;;5051789;28;20459;-85
2021/10/15 09:29:54;;;;;;;26.87;24.47;;;13.30;87.70;;;;;;5575323;23;20474;-85
2021/10/15 09:32:39;;;;;;;44.13;41.20;;;12.70;93.80;;;;;;5053223;28;20830;-84
2021/10/15 09:35:10;;;;;;;227.57;218.50;;;12.40;99.90;;;;;;5053019;28;20464;-83
2021/10/15 09:37:39;;;;;;;294.23;281.97;;;12.10;99.90;;;;;;5047725;28;20463;-83
2021/10/15 09:40:12;;;;;;;414.07;395.87;;;12.10;99.90;;;;;;5052994;28;20546;-85
2021/10/15 09:42:49;;;;;;;528.50;504.03;;;12.00;99.90;;;;;;5016566;28;20842;-84
2021/10/15 09:45:19;;;;;;;580.43;552.27;;;12.10;99.90;;;;;;5053065;28;20472;-83
2021/10/15 09:47:51;;;;;;;694.87;658.73;;;12.00;99.90;;;;;;5053158;28;20452;-84
2021/10/15 10:03:40;;;;;;;942.87;864.27;;;12.30;99.90;;;;;;5035193;28;20475;-85
2021/10/15 10:06:42;;;;;;;940.87;868.40;;;12.50;99.90;;;;;;4991206;28;20909;-85
2021/10/15 10:09:19;;;;;;;950.23;879.17;;;12.60;99.90;;;;;;5007862;28;20559;-85
2021/10/15 10:11:51;;;;;;;966.40;898.00;;;12.80;99.90;;;;;;5014894;28;20459;-84
2021/10/15 10:14:30;;;;;;;958.83;897.97;;;12.80;99.90;;;;;;5013538;28;20498;-85
2021/10/15 10:17:08;;;;;;;945.40;885.30;;;12.80;99.90;;;;;;5014948;28;20444;-84
2021/10/15 10:22:54;;;;;;;912.60;857.57;;;12.70;99.90;;;;;;5025728;28;20525;-83
2021/10/15 10:25:24;;;;;;;890.27;837.43;;;12.80;99.90;;;;;;5056573;28;20466;-83
2021/10/15 10:27:53;;;;;;;868.87;818.70;;;12.70;99.90;;;;;;5055477;28;20491;-82
2021/10/15 10:30:39;;;;;;;896.10;843.27;;;12.70;99.90;;;;;;5063621;28;20482;-85
2021/10/15 10:33:06;;;;;;;870.50;820.70;;;12.80;99.90;;;;;;5076415;28;20951;-83
2021/10/15 10:35:36;;;;;;;838.03;790.57;;;12.80;99.90;;;;;;5076338;28;20536;-82
2021/10/15 10:38:32;;;;;;;848.57;799.60;;;12.80;99.90;;;;;;5076501;28;20508;-84
2021/10/15 10:41:16;;;;;;;731.23;692.43;;;12.70;99.90;;;;;;5076043;28;20462;-85
2021/10/15 10:44:10;;;;;;;697.03;660.03;;;12.90;99.90;;;;;;5074926;28;20486;-83
2021/10/15 10:46:37;;;;;;;857.23;806.87;;;12.80;99.90;;;;;;5073225;28;20831;-82
2021/10/15 10:49:18;;;;;;;842.33;793.87;;;13.00;99.90;;;;;;5074986;28;20460;-81
2021/10/15 10:52:23;;;;;;;854.47;805.17;;;13.00;99.90;;;;;;5074948;28;20945;-85
2021/10/15 10:54:51;;;;;;;768.10;725.60;;;13.10;99.90;;;;;;5075161;28;20454;-83
2021/10/15 10:57:24;;;;;;;596.00;565.90;;;13.20;99.90;;;;;;5073822;28;20490;-85
2021/10/15 10:59:53;;;;;;;665.67;630.30;;;13.30;99.90;;;;;;5074744;28;20461;-86
2021/10/15 11:02:22;;;;;;;582.37;553.67;;;13.50;99.90;;;;;;5074623;28;20518;-85
2021/10/15 11:05:03;;;;;;;509.60;485.13;;;13.50;99.90;;;;;;5074770;28;20995;-82
2021/10/15 11:07:32;;;;;;;443.63;424.03;;;13.50;99.90;;;;;;5074695;28;20505;-83
2021/10/15 11:10:05;;;;;;;133.40;128.53;;;13.30;99.90;;;;;;5074309;28;20490;-82
2021/10/15 11:13:02;;;;;;;33.90;32.40;;;12.80;99.90;;;;;;5073512;28;21126;-86
2021/10/15 11:15:34;;;;;;;58.17;55.87;;;12.20;99.90;;;;;;5074718;28;20504;-89
2021/10/15 11:18:06;;;;;;;104.27;100.53;;;12.00;99.90;;;;;;5074687;28;20490;-85
2021/10/15 11:20:38;;;;;;;225.73;218.27;;;12.00;99.90;;;;;;5073308;28;20457;-84
2021/10/15 11:23:14;;;;;;;120.40;115.90;;;11.90;99.90;;;;;;5074598;28;20486;-87
2021/10/15 11:25:50;;;;;;;143.10;138.23;;;11.90;99.90;;;;;;5075402;28;20545;-85
2021/10/15 11:28:20;;;;;;;230.60;222.70;;;12.00;99.90;;;;;;5074238;28;20451;-85
2021/10/15 11:30:48;;;;;;;288.93;278.37;;;12.20;99.90;;;;;;5074980;28;20482;-85
2021/10/15 11:33:17;;;;;;;329.27;316.20;;;12.80;99.90;;;;;;5075207;28;20482;-85
2021/10/15 11:35:49;;;;;;;56.67;54.37;;;13.40;99.90;;;;;;5075326;28;20515;-86
2021/10/15 11:38:19;;;;;;;25.80;23.80;;;13.50;99.90;;;;;;5075046;28;20460;-86
2021/10/15 11:40:49;;;;;;;24.27;23.27;;;13.40;99.10;;;;;;5075015;28;20493;-83
2021/10/15 11:43:22;;;;;;;30.87;29.07;;;13.30;98.40;;;;;;5073560;28;20570;-86
2021/10/15 11:45:51;;;;;;;28.77;27.30;;;13.50;99.90;;;;;;5075060;28;20478;-84
2021/10/15 11:48:22;;;;;;;18.00;17.00;;;13.70;98.30;;;;;;5075104;28;20471;-86
2021/10/15 11:50:52;;;;;;;18.10;16.87;;;13.60;96.20;;;;;;5074915;28;20964;-84
2021/10/15 11:53:22;;;;;;;20.13;19.03;;;13.70;94.10;;;;;;5074820;28;20477;-84
2021/10/15 11:55:53;;;;;;;18.80;17.80;;;13.80;96.40;;;;;;5074833;28;20483;-83
2021/10/15 11:58:24;;;;;;;9.67;8.97;;;13.90;95.80;;;;;;5073589;28;20517;-85
2021/10/15 12:01:14;;;;;;;7.53;6.83;;;13.80;90.00;;;;;;5074750;28;20958;-82
2021/10/15 12:03:43;;;;;;;10.17;9.27;;;13.90;89.90;;;;;;5074482;28;20492;-83
2021/10/15 12:06:15;;;;;;;7.83;7.33;;;14.10;91.70;;;;;;5074614;28;20922;-85
2021/10/15 12:08:46;;;;;;;7.83;7.07;;;14.20;90.90;;;;;;5074513;28;20961;-84
2021/10/15 12:11:22;;;;;;;9.20;4.80;;;14.40;90.10;;;;;;5074766;28;20512;-83
2021/10/15 12:13:49;;;;;;;9.70;2.37;;;14.80;82.30;;;;;;5073154;28;20461;-83
2021/10/15 12:16:33;;;;;;;4.70;2.20;;;15.10;74.80;;;;;;5074548;28;20466;-84
2021/10/15 12:19:07;;;;;;;5.33;1.67;;;15.00;74.40;;;;;;5074138;28;20950;-83
2021/10/15 12:21:41;;;;;;;8.80;1.83;;;14.70;72.90;;;;;;5074448;28;20496;-83
2021/10/15 12:24:10;;;;;;;8.03;2.10;;;14.70;74.20;;;;;;5074431;28;20517;-86
2021/10/15 12:26:42;;;;;;;7.67;2.20;;;14.80;69.70;;;;;;5074354;28;20455;-83
2021/10/15 12:29:30;;;;;;;4.37;1.90;;;15.20;75.80;;;;;;5072815;28;20468;-86
2021/10/15 12:32:21;;;;;;;6.27;1.80;;;15.10;68.90;;;;;;5073975;28;20458;-84
2021/10/15 12:35:07;;;;;;;5.40;2.63;;;15.40;62.20;;;;;;5074134;28;20490;-85
2021/10/15 12:37:41;;;;;;;9.63;1.70;;;15.10;65.60;;;;;;5073776;28;20940;-83
2021/10/15 12:40:23;;;;;;;3.40;1.10;;;15.00;64.20;;;;;;5074882;28;20508;-84
2021/10/15 12:43:26;;;;;;;7.70;2.20;;;15.00;63.40;;;;;;5072636;28;20478;-84
2021/10/15 12:45:58;;;;;;;7.23;1.40;;;14.90;58.60;;;;;;5062046;28;20468;-83
2021/10/15 12:48:29;;;;;;;5.43;1.60;;;14.60;63.00;;;;;;5073804;28;20504;-83
2021/10/15 12:51:03;;;;;;;5.63;1.60;;;14.70;58.50;;;;;;5073652;28;20450;-83
2021/10/15 12:53:39;;;;;;;11.67;1.93;;;15.20;59.50;;;;;;5073675;28;20449;-83
2021/10/15 12:56:27;;;;;;;12.23;3.90;;;15.30;57.50;;;;;;5073741;28;20509;-83
2021/10/15 12:59:03;;;;;;;14.23;2.00;;;15.40;56.30;;;;;;5072522;28;20457;-83
2021/10/15 13:01:37;;;;;;;6.67;1.63;;;15.60;57.80;;;;;;5073650;28;20457;-87
2021/10/15 13:04:11;;;;;;;9.40;1.70;;;15.80;52.50;;;;;;5073450;28;20487;-84
2021/10/15 13:06:48;;;;;;;5.57;1.10;;;15.60;49.10;;;;;;5071238;28;20903;-85
2021/10/15 13:09:24;;;;;;;8.60;2.10;;;15.30;52.80;;;;;;5072256;28;20473;-84
2021/10/15 13:11:51;;;;;;;19.03;1.97;;;15.30;55.00;;;;;;5072155;28;20524;-84
2021/10/15 13:14:22;;;;;;;6.97;1.30;;;15.00;51.90;;;;;;5071171;28;20458;-83
2021/10/15 13:17:14;;;;;;;4.60;1.30;;;15.30;55.70;;;;;;5072134;28;20961;-83
2021/10/15 13:19:53;;;;;;;10.93;2.43;;;15.10;56.00;;;;;;5072271;28;20454;-85
2021/10/15 13:22:47;;;;;;;12.17;1.67;;;15.10;57.30;;;;;;5073297;28;20474;-84
2021/10/15 13:25:17;;;;;;;11.20;2.07;;;14.90;53.50;;;;;;5022351;28;20510;-85
2021/10/15 13:27:44;;;;;;;6.00;1.20;;;14.70;53.40;;;;;;5071744;28;20816;-83
2021/10/15 13:30:27;;;;;;;7.83;1.70;;;14.80;53.50;;;;;;5072775;28;20521;-84
2021/10/15 13:32:56;;;;;;;8.10;2.50;;;14.40;53.90;;;;;;5072799;28;20458;-85
2021/10/15 13:35:27;;;;;;;6.57;1.87;;;14.00;55.20;;;;;;5072935;28;20501;-84